sensor_id;sensor_type;location;lat;lon;timestamp;P1;durP1;ratioP1;P2;durP2;ratioP2
51122;SDS011;37162;41.724;13.346;2023-04-28T00:01:46;1.20;;;1.10;;
51122;SDS011;37162;41.724;13.346;2023-04-28T00:04:11;1.60;;;1.30;;
51122;SDS011;37162;41.724;13.346;2023-04-28T00:06:37;1.30;;;1.20;;
51122;SDS011;37162;41.724;13.346;2023-04-28T00:09:02;2.00;;;1.38;;
51122;SDS011;37162;41.724;13.346;2023-04-28T00:11:28;1.35;;;1.20;;
51122;SDS011;37162;41.724;13.346;2023-04-28T00:13:53;2.17;;;1.05;;
51122;SDS011;37162;41.724;13.346;2023-04-28T00:16:19;1.58;;;1.35;;
51122;SDS011;37162;41.724;13.346;2023-04-28T00:18:45;2.75;;;1.00;;
51122;SDS011;37162;41.724;13.346;2023-04-28T00:21:10;2.53;;;1.40;;
51122;SDS011;37162;41.724;13.346;2023-04-28T00:23:36;1.20;;;1.10;;
51122;SDS011;37162;41.724;13.346;2023-04-28T00:26:01;1.20;;;1.10;;
51122;SDS011;37162;41.724;13.346;2023-04-28T00:28:26;3.38;;;1.20;;
51122;SDS011;37162;41.724;13.346;2023-04-28T00:30:52;2.22;;;1.27;;
51122;SDS011;37162;41.724;13.346;2023-04-28T00:33:17;2.08;;;1.40;;
51122;SDS011;37162;41.724;13.346;2023-04-28T00:35:43;2.17;;;1.20;;
51122;SDS011;37162;41.724;13.346;2023-04-28T00:38:08;1.67;;;1.10;;
51122;SDS011;37162;41.724;13.346;2023-04-28T00:40:34;5.03;;;1.15;;
51122;SDS011;37162;41.724;13.346;2023-04-28T00:43:00;1.60;;;1.48;;
51122;SDS011;37162;41.724;13.346;2023-04-28T00:45:29;1.77;;;1.00;;
51122;SDS011;37162;41.724;13.346;2023-04-28T00:47:55;2.90;;;1.27;;
51122;SDS011;37162;41.724;13.346;2023-04-28T00:50:21;1.40;;;1.17;;
51122;SDS011;37162;41.724;13.346;2023-04-28T00:52:48;1.30;;;1.15;;
51122;SDS011;37162;41.724;13.346;2023-04-28T00:55:15;1.95;;;1.20;;
51122;SDS011;37162;41.724;13.346;2023-04-28T00:57:41;3.38;;;1.10;;
51122;SDS011;37162;41.724;13.346;2023-04-28T01:00:07;1.80;;;1.30;;
51122;SDS011;37162;41.724;13.346;2023-04-28T01:02:36;1.60;;;1.20;;
51122;SDS011;37162;41.724;13.346;2023-04-28T01:05:03;2.03;;;1.23;;
51122;SDS011;37162;41.724;13.346;2023-04-28T01:07:30;1.10;;;1.00;;
51122;SDS011;37162;41.724;13.346;2023-04-28T01:09:55;1.90;;;1.40;;
51122;SDS011;37162;41.724;13.346;2023-04-28T01:12:21;1.55;;;1.42;;
51122;SDS011;37162;41.724;13.346;2023-04-28T01:14:50;1.52;;;1.20;;
51122;SDS011;37162;41.724;13.346;2023-04-28T01:17:16;1.20;;;1.05;;
51122;SDS011;37162;41.724;13.346;2023-04-28T01:19:42;1.17;;;1.08;;
51122;SDS011;37162;41.724;13.346;2023-04-28T01:22:07;1.25;;;1.00;;
51122;SDS011;37162;41.724;13.346;2023-04-28T01:24:37;1.60;;;1.20;;
51122;SDS011;37162;41.724;13.346;2023-04-28T01:27:03;4.63;;;1.35;;
51122;SDS011;37162;41.724;13.346;2023-04-28T01:29:28;2.45;;;1.30;;
51122;SDS011;37162;41.724;13.346;2023-04-28T01:31:54;1.20;;;1.08;;
51122;SDS011;37162;41.724;13.346;2023-04-28T01:34:19;1.10;;;1.00;;
51122;SDS011;37162;41.724;13.346;2023-04-28T01:36:45;2.30;;;1.02;;
51122;SDS011;37162;41.724;13.346;2023-04-28T01:39:10;2.53;;;1.40;;
51122;SDS011;37162;41.724;13.346;2023-04-28T01:41:36;1.10;;;1.00;;
51122;SDS011;37162;41.724;13.346;2023-04-28T01:44:01;1.27;;;1.17;;
51122;SDS011;37162;41.724;13.346;2023-04-28T01:46:27;1.63;;;1.25;;
51122;SDS011;37162;41.724;13.346;2023-04-28T01:48:53;1.00;;;0.90;;
51122;SDS011;37162;41.724;13.346;2023-04-28T01:51:18;1.48;;;0.90;;
51122;SDS011;37162;41.724;13.346;2023-04-28T01:53:44;1.52;;;1.20;;
51122;SDS011;37162;41.724;13.346;2023-04-28T01:56:09;1.27;;;1.08;;
51122;SDS011;37162;41.724;13.346;2023-04-28T01:58:35;1.00;;;0.90;;
51122;SDS011;37162;41.724;13.346;2023-04-28T02:01:00;0.90;;;0.90;;
51122;SDS011;37162;41.724;13.346;2023-04-28T02:03:26;1.48;;;1.08;;
51122;SDS011;37162;41.724;13.346;2023-04-28T02:05:52;1.27;;;0.85;;
51122;SDS011;37162;41.724;13.346;2023-04-28T02:08:18;1.08;;;0.98;;
51122;SDS011;37162;41.724;13.346;2023-04-28T02:10:43;1.80;;;1.00;;
51122;SDS011;37162;41.724;13.346;2023-04-28T02:13:09;1.00;;;0.80;;
51122;SDS011;37162;41.724;13.346;2023-04-28T02:15:38;1.20;;;1.10;;
51122;SDS011;37162;41.724;13.346;2023-04-28T02:18:07;3.85;;;1.35;;
51122;SDS011;37162;41.724;13.346;2023-04-28T02:20:33;2.17;;;1.30;;
51122;SDS011;37162;41.724;13.346;2023-04-28T02:22:58;2.17;;;1.08;;
51122;SDS011;37162;41.724;13.346;2023-04-28T02:25:23;1.30;;;1.00;;
51122;SDS011;37162;41.724;13.346;2023-04-28T02:27:49;1.05;;;0.93;;
51122;SDS011;37162;41.724;13.346;2023-04-28T02:30:14;1.60;;;1.00;;
51122;SDS011;37162;41.724;13.346;2023-04-28T02:32:40;1.02;;;1.00;;
51122;SDS011;37162;41.724;13.346;2023-04-28T02:35:06;1.85;;;1.00;;
51122;SDS011;37162;41.724;13.346;2023-04-28T02:37:31;1.05;;;0.95;;
51122;SDS011;37162;41.724;13.346;2023-04-28T02:39:57;1.30;;;1.00;;
51122;SDS011;37162;41.724;13.346;2023-04-28T02:42:22;1.17;;;1.00;;
51122;SDS011;37162;41.724;13.346;2023-04-28T02:44:48;1.20;;;0.80;;
51122;SDS011;37162;41.724;13.346;2023-04-28T02:47:13;1.58;;;1.20;;
51122;SDS011;37162;41.724;13.346;2023-04-28T02:49:39;2.17;;;1.13;;
51122;SDS011;37162;41.724;13.346;2023-04-28T02:52:04;0.95;;;0.90;;
51122;SDS011;37162;41.724;13.346;2023-04-28T02:54:29;1.27;;;0.95;;
51122;SDS011;37162;41.724;13.346;2023-04-28T02:56:57;0.90;;;0.90;;
51122;SDS011;37162;41.724;13.346;2023-04-28T02:59:23;1.00;;;1.00;;
51122;SDS011;37162;41.724;13.346;2023-04-28T03:01:49;1.02;;;0.93;;
51122;SDS011;37162;41.724;13.346;2023-04-28T03:04:15;1.80;;;1.23;;
51122;SDS011;37162;41.724;13.346;2023-04-28T03:06:41;0.90;;;0.90;;
51122;SDS011;37162;41.724;13.346;2023-04-28T03:09:07;1.10;;;0.98;;
51122;SDS011;37162;41.724;13.346;2023-04-28T03:11:33;0.73;;;0.65;;
51122;SDS011;37162;41.724;13.346;2023-04-28T03:13:59;1.75;;;0.90;;
51122;SDS011;37162;41.724;13.346;2023-04-28T03:16:25;1.08;;;0.90;;
51122;SDS011;37162;41.724;13.346;2023-04-28T03:18:50;1.13;;;0.93;;
51122;SDS011;37162;41.724;13.346;2023-04-28T03:21:16;1.10;;;0.98;;
51122;SDS011;37162;41.724;13.346;2023-04-28T03:23:41;0.85;;;0.85;;
51122;SDS011;37162;41.724;13.346;2023-04-28T03:26:06;1.33;;;0.90;;
51122;SDS011;37162;41.724;13.346;2023-04-28T03:28:32;0.93;;;0.70;;
51122;SDS011;37162;41.724;13.346;2023-04-28T03:30:57;1.08;;;0.80;;
51122;SDS011;37162;41.724;13.346;2023-04-28T03:33:23;1.75;;;0.80;;
51122;SDS011;37162;41.724;13.346;2023-04-28T03:35:48;1.25;;;1.00;;
51122;SDS011;37162;41.724;13.346;2023-04-28T03:38:14;0.90;;;0.90;;
51122;SDS011;37162;41.724;13.346;2023-04-28T03:40:40;0.80;;;0.80;;
51122;SDS011;37162;41.724;13.346;2023-04-28T03:43:06;2.60;;;1.00;;
51122;SDS011;37162;41.724;13.346;2023-04-28T03:45:31;1.33;;;1.08;;
51122;SDS011;37162;41.724;13.346;2023-04-28T03:47:56;1.23;;;1.13;;
51122;SDS011;37162;41.724;13.346;2023-04-28T03:50:22;0.85;;;0.85;;
51122;SDS011;37162;41.724;13.346;2023-04-28T03:52:47;1.08;;;0.98;;
51122;SDS011;37162;41.724;13.346;2023-04-28T03:55:13;0.80;;;0.80;;
51122;SDS011;37162;41.724;13.346;2023-04-28T03:57:38;0.80;;;0.80;;
51122;SDS011;37162;41.724;13.346;2023-04-28T04:00:04;1.02;;;0.90;;
51122;SDS011;37162;41.724;13.346;2023-04-28T04:02:30;1.00;;;0.90;;
51122;SDS011;37162;41.724;13.346;2023-04-28T04:04:55;1.60;;;1.10;;
51122;SDS011;37162;41.724;13.346;2023-04-28T04:07:21;0.80;;;0.80;;
51122;SDS011;37162;41.724;13.346;2023-04-28T04:09:47;1.40;;;1.00;;
51122;SDS011;37162;41.724;13.346;2023-04-28T04:12:12;0.88;;;0.80;;
51122;SDS011;37162;41.724;13.346;2023-04-28T04:14:38;0.80;;;0.80;;
51122;SDS011;37162;41.724;13.346;2023-04-28T04:17:04;1.42;;;0.98;;
51122;SDS011;37162;41.724;13.346;2023-04-28T04:19:30;1.20;;;0.73;;
51122;SDS011;37162;41.724;13.346;2023-04-28T04:21:55;1.10;;;1.00;;
51122;SDS011;37162;41.724;13.346;2023-04-28T04:24:20;3.17;;;1.10;;
51122;SDS011;37162;41.724;13.346;2023-04-28T04:26:46;0.98;;;0.88;;
51122;SDS011;37162;41.724;13.346;2023-04-28T04:29:11;1.65;;;1.05;;
51122;SDS011;37162;41.724;13.346;2023-04-28T04:31:37;1.10;;;0.88;;
51122;SDS011;37162;41.724;13.346;2023-04-28T04:34:02;1.55;;;0.90;;
51122;SDS011;37162;41.724;13.346;2023-04-28T04:36:27;1.25;;;1.15;;
51122;SDS011;37162;41.724;13.346;2023-04-28T04:38:54;0.85;;;0.77;;
51122;SDS011;37162;41.724;13.346;2023-04-28T04:41:20;1.27;;;0.88;;
51122;SDS011;37162;41.724;13.346;2023-04-28T04:43:45;2.33;;;1.00;;
51122;SDS011;37162;41.724;13.346;2023-04-28T04:46:11;1.13;;;0.80;;
51122;SDS011;37162;41.724;13.346;2023-04-28T04:48:37;0.88;;;0.88;;
51122;SDS011;37162;41.724;13.346;2023-04-28T04:51:03;0.70;;;0.70;;
51122;SDS011;37162;41.724;13.346;2023-04-28T04:53:28;1.17;;;0.80;;
51122;SDS011;37162;41.724;13.346;2023-04-28T04:55:54;0.80;;;0.80;;
51122;SDS011;37162;41.724;13.346;2023-04-28T04:58:20;1.88;;;0.90;;
51122;SDS011;37162;41.724;13.346;2023-04-28T05:00:45;1.10;;;1.00;;
51122;SDS011;37162;41.724;13.346;2023-04-28T05:03:10;1.20;;;0.93;;
51122;SDS011;37162;41.724;13.346;2023-04-28T05:05:36;0.60;;;0.60;;
51122;SDS011;37162;41.724;13.346;2023-04-28T05:08:01;0.75;;;0.75;;
51122;SDS011;37162;41.724;13.346;2023-04-28T05:10:27;0.93;;;0.68;;
51122;SDS011;37162;41.724;13.346;2023-04-28T05:12:53;1.40;;;0.95;;
51122;SDS011;37162;41.724;13.346;2023-04-28T05:15:18;0.73;;;0.73;;
51122;SDS011;37162;41.724;13.346;2023-04-28T05:17:44;2.22;;;1.00;;
51122;SDS011;37162;41.724;13.346;2023-04-28T05:20:09;0.98;;;0.90;;
51122;SDS011;37162;41.724;13.346;2023-04-28T05:22:35;0.82;;;0.70;;
51122;SDS011;37162;41.724;13.346;2023-04-28T05:25:00;0.98;;;0.90;;
51122;SDS011;37162;41.724;13.346;2023-04-28T05:27:26;1.77;;;0.95;;
51122;SDS011;37162;41.724;13.346;2023-04-28T05:29:51;0.98;;;0.85;;
51122;SDS011;37162;41.724;13.346;2023-04-28T05:32:17;0.77;;;0.77;;
51122;SDS011;37162;41.724;13.346;2023-04-28T05:34:42;1.55;;;0.95;;
51122;SDS011;37162;41.724;13.346;2023-04-28T05:37:07;2.05;;;0.98;;
51122;SDS011;37162;41.724;13.346;2023-04-28T05:39:33;1.33;;;1.00;;
51122;SDS011;37162;41.724;13.346;2023-04-28T05:41:58;1.88;;;1.08;;
51122;SDS011;37162;41.724;13.346;2023-04-28T05:44:24;1.38;;;1.00;;
51122;SDS011;37162;41.724;13.346;2023-04-28T05:46:49;1.48;;;1.08;;
51122;SDS011;37162;41.724;13.346;2023-04-28T05:49:15;1.30;;;1.10;;
51122;SDS011;37162;41.724;13.346;2023-04-28T05:51:40;1.20;;;1.10;;
51122;SDS011;37162;41.724;13.346;2023-04-28T05:54:06;1.20;;;1.10;;
51122;SDS011;37162;41.724;13.346;2023-04-28T05:56:32;2.10;;;1.00;;
51122;SDS011;37162;41.724;13.346;2023-04-28T05:58:57;1.40;;;1.20;;
51122;SDS011;37162;41.724;13.346;2023-04-28T06:01:24;3.47;;;1.20;;
51122;SDS011;37162;41.724;13.346;2023-04-28T06:03:50;1.55;;;1.20;;
51122;SDS011;37162;41.724;13.346;2023-04-28T06:06:17;1.15;;;1.00;;
51122;SDS011;37162;41.724;13.346;2023-04-28T06:08:42;1.13;;;1.08;;
51122;SDS011;37162;41.724;13.346;2023-04-28T06:11:07;1.30;;;1.20;;
51122;SDS011;37162;41.724;13.346;2023-04-28T06:13:33;1.77;;;1.50;;
51122;SDS011;37162;41.724;13.346;2023-04-28T06:15:58;1.52;;;1.20;;
51122;SDS011;37162;41.724;13.346;2023-04-28T06:18:24;2.95;;;1.90;;
51122;SDS011;37162;41.724;13.346;2023-04-28T06:20:50;2.88;;;1.55;;
51122;SDS011;37162;41.724;13.346;2023-04-28T06:23:16;1.77;;;1.45;;
51122;SDS011;37162;41.724;13.346;2023-04-28T06:25:41;1.58;;;1.30;;
51122;SDS011;37162;41.724;13.346;2023-04-28T06:28:07;2.72;;;1.63;;
51122;SDS011;37162;41.724;13.346;2023-04-28T06:30:33;2.45;;;1.48;;
51122;SDS011;37162;41.724;13.346;2023-04-28T06:32:58;3.17;;;1.30;;
51122;SDS011;37162;41.724;13.346;2023-04-28T06:35:24;2.50;;;1.60;;
51122;SDS011;37162;41.724;13.346;2023-04-28T06:37:50;2.80;;;1.40;;
51122;SDS011;37162;41.724;13.346;2023-04-28T06:40:15;2.30;;;1.60;;
51122;SDS011;37162;41.724;13.346;2023-04-28T06:42:41;2.67;;;1.70;;
51122;SDS011;37162;41.724;13.346;2023-04-28T06:45:06;2.30;;;1.50;;
51122;SDS011;37162;41.724;13.346;2023-04-28T06:47:32;2.45;;;1.50;;
51122;SDS011;37162;41.724;13.346;2023-04-28T06:49:58;2.78;;;1.38;;
51122;SDS011;37162;41.724;13.346;2023-04-28T06:52:23;1.85;;;1.40;;
51122;SDS011;37162;41.724;13.346;2023-04-28T06:54:49;2.20;;;1.52;;
51122;SDS011;37162;41.724;13.346;2023-04-28T06:57:15;2.08;;;1.40;;
51122;SDS011;37162;41.724;13.346;2023-04-28T06:59:41;2.70;;;1.60;;
51122;SDS011;37162;41.724;13.346;2023-04-28T07:02:08;2.78;;;1.17;;
51122;SDS011;37162;41.724;13.346;2023-04-28T07:04:34;3.60;;;1.50;;
51122;SDS011;37162;41.724;13.346;2023-04-28T07:07:00;1.88;;;1.20;;
51122;SDS011;37162;41.724;13.346;2023-04-28T07:09:26;1.75;;;1.35;;
51122;SDS011;37162;41.724;13.346;2023-04-28T07:11:51;1.65;;;1.40;;
51122;SDS011;37162;41.724;13.346;2023-04-28T07:14:17;1.98;;;1.45;;
51122;SDS011;37162;41.724;13.346;2023-04-28T07:16:42;3.72;;;1.55;;
51122;SDS011;37162;41.724;13.346;2023-04-28T07:19:08;1.75;;;1.30;;
51122;SDS011;37162;41.724;13.346;2023-04-28T07:21:33;4.07;;;1.77;;
51122;SDS011;37162;41.724;13.346;2023-04-28T07:23:59;2.05;;;1.58;;
51122;SDS011;37162;41.724;13.346;2023-04-28T07:26:25;1.98;;;1.63;;
51122;SDS011;37162;41.724;13.346;2023-04-28T07:28:50;2.83;;;1.90;;
51122;SDS011;37162;41.724;13.346;2023-04-28T07:31:16;2.42;;;1.52;;
51122;SDS011;37162;41.724;13.346;2023-04-28T07:33:41;4.05;;;1.83;;
51122;SDS011;37162;41.724;13.346;2023-04-28T07:36:07;3.47;;;2.03;;
51122;SDS011;37162;41.724;13.346;2023-04-28T07:38:35;2.58;;;1.60;;
51122;SDS011;37162;41.724;13.346;2023-04-28T07:41:01;3.28;;;1.42;;
51122;SDS011;37162;41.724;13.346;2023-04-28T07:43:27;3.97;;;1.80;;
51122;SDS011;37162;41.724;13.346;2023-04-28T07:45:53;2.30;;;1.58;;
51122;SDS011;37162;41.724;13.346;2023-04-28T07:48:19;3.33;;;1.30;;
51122;SDS011;37162;41.724;13.346;2023-04-28T07:50:44;2.28;;;1.50;;
51122;SDS011;37162;41.724;13.346;2023-04-28T07:53:10;1.88;;;1.45;;
51122;SDS011;37162;41.724;13.346;2023-04-28T07:55:36;2.00;;;1.67;;
51122;SDS011;37162;41.724;13.346;2023-04-28T07:58:01;3.65;;;1.85;;
51122;SDS011;37162;41.724;13.346;2023-04-28T08:00:27;2.45;;;1.65;;
51122;SDS011;37162;41.724;13.346;2023-04-28T08:02:52;1.67;;;1.48;;
51122;SDS011;37162;41.724;13.346;2023-04-28T08:05:17;1.85;;;1.45;;
51122;SDS011;37162;41.724;13.346;2023-04-28T08:07:43;2.45;;;1.70;;
51122;SDS011;37162;41.724;13.346;2023-04-28T08:10:09;2.88;;;1.50;;
51122;SDS011;37162;41.724;13.346;2023-04-28T08:12:35;2.38;;;1.48;;
51122;SDS011;37162;41.724;13.346;2023-04-28T08:15:01;2.50;;;1.60;;
51122;SDS011;37162;41.724;13.346;2023-04-28T08:17:27;2.88;;;1.60;;
51122;SDS011;37162;41.724;13.346;2023-04-28T08:19:53;2.05;;;1.70;;
51122;SDS011;37162;41.724;13.346;2023-04-28T08:22:18;3.28;;;2.25;;
51122;SDS011;37162;41.724;13.346;2023-04-28T08:24:44;2.35;;;1.55;;
51122;SDS011;37162;41.724;13.346;2023-04-28T08:27:10;2.90;;;1.80;;
51122;SDS011;37162;41.724;13.346;2023-04-28T08:29:36;2.05;;;1.50;;
51122;SDS011;37162;41.724;13.346;2023-04-28T08:32:02;1.73;;;1.50;;
51122;SDS011;37162;41.724;13.346;2023-04-28T08:34:28;3.03;;;1.48;;
51122;SDS011;37162;41.724;13.346;2023-04-28T08:36:54;2.00;;;1.52;;
51122;SDS011;37162;41.724;13.346;2023-04-28T08:39:20;1.73;;;1.35;;
51122;SDS011;37162;41.724;13.346;2023-04-28T08:41:47;2.40;;;1.73;;
51122;SDS011;37162;41.724;13.346;2023-04-28T08:44:13;2.70;;;2.25;;
51122;SDS011;37162;41.724;13.346;2023-04-28T08:46:42;2.35;;;1.52;;
51122;SDS011;37162;41.724;13.346;2023-04-28T08:49:11;1.50;;;1.33;;
51122;SDS011;37162;41.724;13.346;2023-04-28T08:51:45;1.80;;;1.38;;
51122;SDS011;37162;41.724;13.346;2023-04-28T08:54:24;2.45;;;1.63;;
51122;SDS011;37162;41.724;13.346;2023-04-28T08:56:54;2.58;;;1.40;;
51122;SDS011;37162;41.724;13.346;2023-04-28T08:59:21;2.13;;;1.42;;
51122;SDS011;37162;41.724;13.346;2023-04-28T09:01:47;1.52;;;1.20;;
51122;SDS011;37162;41.724;13.346;2023-04-28T09:04:15;1.83;;;1.27;;
51122;SDS011;37162;41.724;13.346;2023-04-28T09:06:43;3.83;;;1.58;;
51122;SDS011;37162;41.724;13.346;2023-04-28T09:09:26;4.13;;;1.50;;
51122;SDS011;37162;41.724;13.346;2023-04-28T09:11:57;1.67;;;1.30;;
51122;SDS011;37162;41.724;13.346;2023-04-28T09:14:28;1.75;;;1.27;;
51122;SDS011;37162;41.724;13.346;2023-04-28T09:16:55;2.05;;;1.42;;
51122;SDS011;37162;41.724;13.346;2023-04-28T09:19:21;1.60;;;1.30;;
51122;SDS011;37162;41.724;13.346;2023-04-28T09:21:48;3.97;;;1.48;;
51122;SDS011;37162;41.724;13.346;2023-04-28T09:27:04;6.68;;;1.30;;
51122;SDS011;37162;41.724;13.346;2023-04-28T09:29:31;1.48;;;1.27;;
51122;SDS011;37162;41.724;13.346;2023-04-28T09:32:13;1.75;;;1.20;;
51122;SDS011;37162;41.724;13.346;2023-04-28T09:37:16;1.50;;;1.10;;
51122;SDS011;37162;41.724;13.346;2023-04-28T09:39:47;1.67;;;1.27;;
51122;SDS011;37162;41.724;13.346;2023-04-28T09:45:03;1.98;;;1.15;;
51122;SDS011;37162;41.724;13.346;2023-04-28T09:47:30;1.20;;;1.10;;
51122;SDS011;37162;41.724;13.346;2023-04-28T09:49:58;2.50;;;1.17;;
51122;SDS011;37162;41.724;13.346;2023-04-28T09:52:24;1.30;;;1.02;;
51122;SDS011;37162;41.724;13.346;2023-04-28T09:54:51;2.15;;;1.23;;
51122;SDS011;37162;41.724;13.346;2023-04-28T09:57:18;2.00;;;1.13;;
51122;SDS011;37162;41.724;13.346;2023-04-28T09:59:45;1.65;;;1.20;;
51122;SDS011;37162;41.724;13.346;2023-04-28T10:02:15;2.05;;;1.30;;
51122;SDS011;37162;41.724;13.346;2023-04-28T10:04:45;2.35;;;1.35;;
51122;SDS011;37162;41.724;13.346;2023-04-28T10:07:13;10.02;;;1.88;;
51122;SDS011;37162;41.724;13.346;2023-04-28T10:09:40;2.20;;;1.30;;
51122;SDS011;37162;41.724;13.346;2023-04-28T10:12:14;1.20;;;1.10;;
51122;SDS011;37162;41.724;13.346;2023-04-28T10:14:41;1.20;;;1.10;;
51122;SDS011;37162;41.724;13.346;2023-04-28T10:17:07;1.13;;;1.00;;
51122;SDS011;37162;41.724;13.346;2023-04-28T10:19:35;1.23;;;1.13;;
51122;SDS011;37162;41.724;13.346;2023-04-28T10:22:12;1.67;;;1.02;;
51122;SDS011;37162;41.724;13.346;2023-04-28T10:27:46;1.38;;;1.00;;
51122;SDS011;37162;41.724;13.346;2023-04-28T10:30:13;1.10;;;1.00;;
51122;SDS011;37162;41.724;13.346;2023-04-28T10:32:40;2.35;;;1.23;;
51122;SDS011;37162;41.724;13.346;2023-04-28T10:38:05;1.25;;;1.00;;
51122;SDS011;37162;41.724;13.346;2023-04-28T10:40:43;2.53;;;1.27;;
51122;SDS011;37162;41.724;13.346;2023-04-28T10:43:11;1.80;;;1.13;;
51122;SDS011;37162;41.724;13.346;2023-04-28T10:48:13;1.52;;;1.10;;
51122;SDS011;37162;41.724;13.346;2023-04-28T10:58:35;1.13;;;0.98;;
51122;SDS011;37162;41.724;13.346;2023-04-28T11:06:35;1.38;;;1.27;;
51122;SDS011;37162;41.724;13.346;2023-04-28T11:16:53;1.10;;;1.00;;
51122;SDS011;37162;41.724;13.346;2023-04-28T11:19:24;2.28;;;1.08;;
51122;SDS011;37162;41.724;13.346;2023-04-28T11:21:52;1.42;;;1.27;;
51122;SDS011;37162;41.724;13.346;2023-04-28T11:24:20;1.13;;;1.02;;
51122;SDS011;37162;41.724;13.346;2023-04-28T11:26:46;1.30;;;0.90;;
51122;SDS011;37162;41.724;13.346;2023-04-28T11:29:12;1.80;;;0.98;;
51122;SDS011;37162;41.724;13.346;2023-04-28T11:31:50;1.33;;;1.08;;
51122;SDS011;37162;41.724;13.346;2023-04-28T11:34:19;2.10;;;1.23;;
51122;SDS011;37162;41.724;13.346;2023-04-28T11:36:46;1.48;;;1.15;;
51122;SDS011;37162;41.724;13.346;2023-04-28T11:39:11;1.25;;;0.98;;
51122;SDS011;37162;41.724;13.346;2023-04-28T11:41:41;1.50;;;0.90;;
51122;SDS011;37162;41.724;13.346;2023-04-28T11:44:18;2.90;;;0.90;;
51122;SDS011;37162;41.724;13.346;2023-04-28T11:46:46;2.80;;;1.20;;
51122;SDS011;37162;41.724;13.346;2023-04-28T11:49:19;3.38;;;0.90;;
51122;SDS011;37162;41.724;13.346;2023-04-28T11:51:45;1.23;;;0.95;;
51122;SDS011;37162;41.724;13.346;2023-04-28T11:54:15;1.65;;;1.00;;
51122;SDS011;37162;41.724;13.346;2023-04-28T11:56:45;1.55;;;1.08;;
51122;SDS011;37162;41.724;13.346;2023-04-28T11:59:13;1.48;;;1.20;;
51122;SDS011;37162;41.724;13.346;2023-04-28T12:07:06;2.55;;;1.15;;
51122;SDS011;37162;41.724;13.346;2023-04-28T12:09:39;1.52;;;0.80;;
51122;SDS011;37162;41.724;13.346;2023-04-28T12:12:09;0.80;;;0.80;;
51122;SDS011;37162;41.724;13.346;2023-04-28T12:14:52;3.00;;;1.02;;
51122;SDS011;37162;41.724;13.346;2023-04-28T12:17:24;0.68;;;0.68;;
51122;SDS011;37162;41.724;13.346;2023-04-28T12:19:53;2.45;;;1.00;;
51122;SDS011;37162;41.724;13.346;2023-04-28T12:22:21;1.38;;;0.90;;
51122;SDS011;37162;41.724;13.346;2023-04-28T12:25:07;0.90;;;0.90;;
51122;SDS011;37162;41.724;13.346;2023-04-28T12:27:36;1.30;;;1.10;;
51122;SDS011;37162;41.724;13.346;2023-04-28T12:30:23;2.25;;;1.08;;
51122;SDS011;37162;41.724;13.346;2023-04-28T12:33:26;1.42;;;1.00;;
51122;SDS011;37162;41.724;13.346;2023-04-28T12:35:54;1.40;;;1.10;;
51122;SDS011;37162;41.724;13.346;2023-04-28T12:38:24;1.52;;;0.70;;
51122;SDS011;37162;41.724;13.346;2023-04-28T12:40:51;1.48;;;0.82;;
51122;SDS011;37162;41.724;13.346;2023-04-28T12:43:16;1.55;;;0.95;;
51122;SDS011;37162;41.724;13.346;2023-04-28T12:45:42;0.80;;;0.80;;
51122;SDS011;37162;41.724;13.346;2023-04-28T12:48:07;3.10;;;1.15;;
51122;SDS011;37162;41.724;13.346;2023-04-28T12:50:33;3.53;;;0.90;;
51122;SDS011;37162;41.724;13.346;2023-04-28T12:52:58;1.42;;;1.05;;
51122;SDS011;37162;41.724;13.346;2023-04-28T12:55:24;1.55;;;1.00;;
51122;SDS011;37162;41.724;13.346;2023-04-28T12:57:51;1.63;;;1.00;;
51122;SDS011;37162;41.724;13.346;2023-04-28T13:00:16;1.45;;;1.00;;
51122;SDS011;37162;41.724;13.346;2023-04-28T13:02:45;2.72;;;1.30;;
51122;SDS011;37162;41.724;13.346;2023-04-28T13:05:10;1.75;;;0.68;;
51122;SDS011;37162;41.724;13.346;2023-04-28T13:07:36;0.82;;;0.70;;
51122;SDS011;37162;41.724;13.346;2023-04-28T13:10:02;1.23;;;0.93;;
51122;SDS011;37162;41.724;13.346;2023-04-28T13:12:27;2.60;;;1.00;;
51122;SDS011;37162;41.724;13.346;2023-04-28T13:14:53;1.58;;;1.00;;
51122;SDS011;37162;41.724;13.346;2023-04-28T13:17:18;1.67;;;0.80;;
51122;SDS011;37162;41.724;13.346;2023-04-28T13:19:43;1.80;;;1.17;;
51122;SDS011;37162;41.724;13.346;2023-04-28T13:22:09;0.98;;;0.88;;
51122;SDS011;37162;41.724;13.346;2023-04-28T13:24:35;1.48;;;0.90;;
51122;SDS011;37162;41.724;13.346;2023-04-28T13:27:00;1.17;;;1.00;;
51122;SDS011;37162;41.724;13.346;2023-04-28T13:29:28;2.75;;;1.00;;
51122;SDS011;37162;41.724;13.346;2023-04-28T13:31:53;1.90;;;0.90;;
51122;SDS011;37162;41.724;13.346;2023-04-28T13:34:19;1.95;;;0.80;;
51122;SDS011;37162;41.724;13.346;2023-04-28T13:36:45;1.52;;;1.00;;
51122;SDS011;37162;41.724;13.346;2023-04-28T13:39:12;1.25;;;1.13;;
51122;SDS011;37162;41.724;13.346;2023-04-28T13:41:41;1.55;;;0.88;;
51122;SDS011;37162;41.724;13.346;2023-04-28T13:44:08;1.38;;;1.00;;
51122;SDS011;37162;41.724;13.346;2023-04-28T13:46:33;1.50;;;0.80;;
51122;SDS011;37162;41.724;13.346;2023-04-28T13:49:00;1.95;;;1.00;;
51122;SDS011;37162;41.724;13.346;2023-04-28T13:51:27;1.00;;;0.90;;
51122;SDS011;37162;41.724;13.346;2023-04-28T13:53:53;1.25;;;0.88;;
51122;SDS011;37162;41.724;13.346;2023-04-28T13:56:18;1.48;;;1.02;;
51122;SDS011;37162;41.724;13.346;2023-04-28T13:58:44;3.65;;;1.05;;
51122;SDS011;37162;41.724;13.346;2023-04-28T14:01:09;28.92;;;1.90;;
51122;SDS011;37162;41.724;13.346;2023-04-28T14:03:34;2.35;;;1.15;;
51122;SDS011;37162;41.724;13.346;2023-04-28T14:06:01;10.00;;;1.23;;
51122;SDS011;37162;41.724;13.346;2023-04-28T14:08:27;5.20;;;1.25;;
51122;SDS011;37162;41.724;13.346;2023-04-28T14:10:53;2.20;;;1.10;;
51122;SDS011;37162;41.724;13.346;2023-04-28T14:13:19;4.30;;;1.00;;
51122;SDS011;37162;41.724;13.346;2023-04-28T14:15:45;1.48;;;1.15;;
51122;SDS011;37162;41.724;13.346;2023-04-28T14:18:11;10.00;;;1.35;;
51122;SDS011;37162;41.724;13.346;2023-04-28T14:20:38;5.28;;;1.25;;
51122;SDS011;37162;41.724;13.346;2023-04-28T14:23:03;4.15;;;0.80;;
51122;SDS011;37162;41.724;13.346;2023-04-28T14:25:29;3.65;;;1.00;;
51122;SDS011;37162;41.724;13.346;2023-04-28T14:27:54;2.65;;;1.52;;
51122;SDS011;37162;41.724;13.346;2023-04-28T14:30:20;1.52;;;0.93;;
51122;SDS011;37162;41.724;13.346;2023-04-28T14:32:47;4.10;;;1.70;;
51122;SDS011;37162;41.724;13.346;2023-04-28T14:35:13;3.45;;;1.15;;
51122;SDS011;37162;41.724;13.346;2023-04-28T14:37:39;0.70;;;0.70;;
51122;SDS011;37162;41.724;13.346;2023-04-28T14:40:05;5.65;;;1.10;;
51122;SDS011;37162;41.724;13.346;2023-04-28T14:42:32;4.90;;;1.00;;
51122;SDS011;37162;41.724;13.346;2023-04-28T14:45:00;1.60;;;1.10;;
51122;SDS011;37162;41.724;13.346;2023-04-28T14:47:26;1.70;;;0.88;;
51122;SDS011;37162;41.724;13.346;2023-04-28T14:49:52;1.25;;;0.93;;
51122;SDS011;37162;41.724;13.346;2023-04-28T14:52:21;1.33;;;0.90;;
51122;SDS011;37162;41.724;13.346;2023-04-28T14:54:49;2.20;;;1.00;;
51122;SDS011;37162;41.724;13.346;2023-04-28T14:57:15;2.45;;;1.00;;
51122;SDS011;37162;41.724;13.346;2023-04-28T14:59:40;2.20;;;1.20;;
51122;SDS011;37162;41.724;13.346;2023-04-28T15:02:06;1.98;;;0.80;;
51122;SDS011;37162;41.724;13.346;2023-04-28T15:04:32;0.90;;;0.70;;
51122;SDS011;37162;41.724;13.346;2023-04-28T15:06:58;0.70;;;0.70;;
51122;SDS011;37162;41.724;13.346;2023-04-28T15:09:25;3.58;;;1.20;;
51122;SDS011;37162;41.724;13.346;2023-04-28T15:11:51;0.75;;;0.75;;
51122;SDS011;37162;41.724;13.346;2023-04-28T15:14:16;1.15;;;0.80;;